createdAt,value
2023-01-04T00:02:39.000Z,3.23
2023-01-04T00:05:27.625Z,3.63
2023-01-04T00:08:16.125Z,3.53
2023-01-04T00:11:06.573Z,4.00
2023-01-04T00:13:59.295Z,3.57
2023-01-04T00:16:49.333Z,3.70
2023-01-04T00:19:37.940Z,3.47
2023-01-04T00:22:26.628Z,3.47
2023-01-04T00:25:15.299Z,3.83
2023-01-04T00:28:04.003Z,3.40
2023-01-04T00:30:52.755Z,3.10
2023-01-04T00:33:43.287Z,3.50
2023-01-04T00:36:32.737Z,3.00
2023-01-04T00:39:22.195Z,3.50
2023-01-04T00:42:10.739Z,3.10
2023-01-04T00:44:59.293Z,3.77
2023-01-04T00:47:47.754Z,3.33
2023-01-04T00:50:37.830Z,3.20
2023-01-04T00:53:26.488Z,3.00
2023-01-04T00:56:15.056Z,3.37
2023-01-04T00:59:04.892Z,3.40
2023-01-04T01:01:53.784Z,3.27
2023-01-04T01:04:42.535Z,3.03
2023-01-04T01:07:32.413Z,3.20
2023-01-04T01:10:21.138Z,3.27
2023-01-04T01:13:09.810Z,3.10
2023-01-04T01:16:02.970Z,3.30
2023-01-04T01:18:52.093Z,3.27
2023-01-04T01:21:40.666Z,3.10
2023-01-04T01:24:30.675Z,3.40
2023-01-04T01:27:19.526Z,2.90
2023-01-04T01:30:09.225Z,2.93
2023-01-04T01:32:57.782Z,2.83
2023-01-04T01:35:46.183Z,2.80
2023-01-04T01:38:34.860Z,2.80
2023-01-04T01:41:27.051Z,2.70
2023-01-04T01:44:49.305Z,2.80
2023-01-04T01:47:42.865Z,3.13
2023-01-04T01:50:35.864Z,2.93
2023-01-04T01:53:27.592Z,2.90
2023-01-04T01:56:18.656Z,3.30
2023-01-04T01:59:10.739Z,2.70
2023-01-04T02:01:59.408Z,3.27
2023-01-04T02:04:51.815Z,3.10
2023-01-04T02:07:40.420Z,3.17
2023-01-04T02:10:29.166Z,3.23
2023-01-04T02:13:21.824Z,3.03
2023-01-04T02:16:20.642Z,3.37
2023-01-04T02:19:28.847Z,4.33
2023-01-04T02:22:39.398Z,3.70
2023-01-04T02:26:00.369Z,3.50
2023-01-04T02:29:14.547Z,3.70
2023-01-04T02:32:06.321Z,4.30
2023-01-04T02:35:02.490Z,4.70
2023-01-04T02:37:58.863Z,5.67
2023-01-04T02:40:52.707Z,6.43
2023-01-04T02:44:03.424Z,6.77
2023-01-04T02:46:56.947Z,6.60
2023-01-04T02:50:05.141Z,6.67
2023-01-04T02:52:53.981Z,6.80
2023-01-04T02:55:52.823Z,8.07
2023-01-04T02:59:03.740Z,8.93
2023-01-04T03:02:18.233Z,8.57
2023-01-04T03:05:52.085Z,9.00
2023-01-04T03:08:44.855Z,10.20
2023-01-04T03:11:59.324Z,10.07
2023-01-04T03:15:00.249Z,11.37
2023-01-04T03:17:53.395Z,11.67
2023-01-04T03:20:44.308Z,13.37
2023-01-04T03:23:54.472Z,13.43
2023-01-04T03:27:04.494Z,13.43
2023-01-04T03:30:17.282Z,14.07
2023-01-04T03:33:29.006Z,14.80
2023-01-04T03:36:28.138Z,15.73
2023-01-04T03:39:42.076Z,15.80
2023-01-04T03:42:54.393Z,17.23
2023-01-04T03:46:05.584Z,17.57
2023-01-04T03:48:59.983Z,20.13
2023-01-04T03:51:53.069Z,18.80
2023-01-04T03:54:45.492Z,18.70
2023-01-04T03:57:35.515Z,20.33
2023-01-04T04:00:24.665Z,18.90
2023-01-04T04:03:13.275Z,18.50
2023-01-04T04:06:19.499Z,18.80
2023-01-04T04:09:09.393Z,19.13
2023-01-04T04:11:58.123Z,18.73
2023-01-04T04:14:46.652Z,18.93
2023-01-04T04:17:35.221Z,19.10
2023-01-04T04:20:23.920Z,19.43
2023-01-04T04:23:12.372Z,19.23
2023-01-04T04:26:02.507Z,18.30
2023-01-04T04:28:51.187Z,18.03
2023-01-04T04:31:39.977Z,18.77
2023-01-04T04:34:28.565Z,19.07
2023-01-04T04:37:17.069Z,19.03
2023-01-04T04:40:06.227Z,18.80
2023-01-04T04:42:55.373Z,17.50
2023-01-04T04:45:44.556Z,16.67
2023-01-04T04:48:33.225Z,17.23
2023-01-04T04:51:21.799Z,15.87
2023-01-04T04:54:12.937Z,15.37
2023-01-04T04:57:01.545Z,14.83
2023-01-04T04:59:51.446Z,14.53
2023-01-04T05:02:40.269Z,13.50
2023-01-04T05:05:29.634Z,12.93
2023-01-04T05:08:18.104Z,12.13
2023-01-04T05:11:08.412Z,13.30
2023-01-04T05:13:55.977Z,12.00
2023-01-04T05:16:46.170Z,12.23
2023-01-04T05:19:34.740Z,11.93
2023-01-04T05:22:23.238Z,12.00
2023-01-04T05:25:12.205Z,11.27
2023-01-04T05:28:01.281Z,11.30
2023-01-04T05:30:53.649Z,10.47
2023-01-04T05:33:43.656Z,10.10
2023-01-04T05:36:32.298Z,10.27
2023-01-04T05:39:20.972Z,9.70
2023-01-04T05:42:27.261Z,9.40
2023-01-04T05:45:16.584Z,9.27
2023-01-04T05:48:05.657Z,9.30
2023-01-04T05:50:55.642Z,8.17
2023-01-04T05:53:44.156Z,7.60
2023-01-04T05:56:32.686Z,7.77
2023-01-04T05:59:21.539Z,6.97
2023-01-04T06:02:17.093Z,6.53
2023-01-04T06:05:06.353Z,7.17
2023-01-04T06:07:56.181Z,6.17
2023-01-04T06:10:44.689Z,6.00
2023-01-04T06:13:33.325Z,6.13
2023-01-04T06:16:21.939Z,5.50
2023-01-04T06:19:10.703Z,5.47
2023-01-04T06:21:59.693Z,4.70
2023-01-04T06:24:50.113Z,5.03
2023-01-04T06:27:38.783Z,5.10
2023-01-04T06:30:29.054Z,4.90
2023-01-04T06:33:17.596Z,4.77
2023-01-04T06:36:07.021Z,4.10
2023-01-04T06:38:58.001Z,4.43
2023-01-04T06:41:47.968Z,4.20
2023-01-04T06:44:36.521Z,4.00
2023-01-04T06:47:25.135Z,3.80
2023-01-04T06:50:13.737Z,3.97
2023-01-04T06:53:02.669Z,3.90
2023-01-04T06:55:51.278Z,3.10
2023-01-04T06:58:41.380Z,2.70
2023-01-04T07:01:30.109Z,1.70
2023-01-04T07:04:18.876Z,1.40
2023-01-04T07:07:07.522Z,1.13
2023-01-04T07:09:56.090Z,1.20
2023-01-04T07:12:44.617Z,1.37
2023-01-04T07:15:39.342Z,1.10
2023-01-04T07:18:28.871Z,1.10
2023-01-04T07:21:17.464Z,1.20
2023-01-04T07:24:06.103Z,1.20
2023-01-04T07:26:54.838Z,0.87
2023-01-04T07:29:44.319Z,1.00
2023-01-04T07:32:34.239Z,1.20
2023-01-04T07:35:23.598Z,0.97
2023-01-04T07:38:12.467Z,1.17
2023-01-04T07:41:01.282Z,0.93
2023-01-04T07:43:49.833Z,1.03
2023-01-04T07:46:39.330Z,0.93
2023-01-04T07:49:29.286Z,1.00
2023-01-04T07:52:17.901Z,0.80
2023-01-04T07:55:07.310Z,0.97
2023-01-04T07:57:55.911Z,0.83
2023-01-04T08:00:44.671Z,1.33
2023-01-04T08:03:33.253Z,1.00
2023-01-04T08:06:23.669Z,1.10
2023-01-04T08:09:13.078Z,1.20
2023-01-04T08:12:02.566Z,0.80
2023-01-04T08:14:51.265Z,1.00
2023-01-04T08:17:39.811Z,1.07
2023-01-04T08:20:28.283Z,1.00
2023-01-04T08:23:18.541Z,1.30
2023-01-04T08:26:08.778Z,1.07
2023-01-04T08:28:57.782Z,1.10
2023-01-04T08:31:46.695Z,1.00
2023-01-04T08:34:35.451Z,0.83
2023-01-04T08:37:23.997Z,1.00
2023-01-04T08:40:14.142Z,1.20
2023-01-04T08:43:02.650Z,0.70
2023-01-04T08:45:51.227Z,0.80
2023-01-04T08:48:41.101Z,1.10
2023-01-04T08:51:29.740Z,1.10
2023-01-04T08:54:19.057Z,0.90
2023-01-04T08:57:08.989Z,1.03
2023-01-04T08:59:57.692Z,0.90
2023-01-04T09:02:46.245Z,0.90
2023-01-04T09:05:34.914Z,1.00
2023-01-04T09:08:23.955Z,0.70
2023-01-04T09:11:15.095Z,0.80
2023-01-04T09:14:08.441Z,1.00
2023-01-04T09:16:57.420Z,0.80
2023-01-04T09:19:45.979Z,1.00
2023-01-04T09:22:34.626Z,0.90
2023-01-04T09:25:23.199Z,0.90
2023-01-04T09:28:11.892Z,0.80
2023-01-04T09:31:06.388Z,0.90
2023-01-04T09:37:04.744Z,0.77
2023-01-04T09:39:53.382Z,1.03
2023-01-04T09:42:45.542Z,0.90
2023-01-04T09:45:34.095Z,0.80
2023-01-04T09:48:29.263Z,1.20
2023-01-04T09:51:21.203Z,0.73
2023-01-04T09:54:17.143Z,0.80
2023-01-04T09:57:06.658Z,1.10
2023-01-04T10:00:00.635Z,1.10
2023-01-04T10:02:56.027Z,0.90
2023-01-04T10:05:46.374Z,0.97
2023-01-04T10:08:36.027Z,0.90
2023-01-04T10:11:37.594Z,1.00
2023-01-04T10:14:44.813Z,0.90
2023-01-04T10:21:32.777Z,0.90
2023-01-04T10:24:42.702Z,1.00
2023-01-04T10:27:42.864Z,0.83
2023-01-04T10:30:40.742Z,0.90
2023-01-04T10:33:36.092Z,0.90
2023-01-04T10:36:32.600Z,0.80
2023-01-04T10:39:32.045Z,0.90
2023-01-04T10:42:32.906Z,1.30
2023-01-04T10:45:31.329Z,1.00
2023-01-04T10:48:27.010Z,1.00
2023-01-04T10:51:22.377Z,1.10
2023-01-04T10:54:20.600Z,0.83
2023-01-04T10:57:12.313Z,0.80
2023-01-04T11:00:04.730Z,0.67
2023-01-04T11:03:08.262Z,0.93
2023-01-04T11:06:09.017Z,0.90
2023-01-04T11:09:00.518Z,1.10
2023-01-04T11:11:51.338Z,0.90
2023-01-04T11:14:40.011Z,0.80
2023-01-04T11:17:29.391Z,1.00
2023-01-04T11:20:18.120Z,0.90
2023-01-04T11:23:10.560Z,0.80
2023-01-04T11:26:02.165Z,0.90
2023-01-04T11:28:56.005Z,0.90
2023-01-04T11:31:50.007Z,0.90
2023-01-04T11:34:47.803Z,0.77
2023-01-04T11:37:37.814Z,0.97
2023-01-04T11:40:28.141Z,1.00
2023-01-04T11:43:19.430Z,1.20
2023-01-04T11:46:24.336Z,0.90
2023-01-04T11:49:20.578Z,1.00
2023-01-04T11:52:32.881Z,0.90
2023-01-04T11:55:26.008Z,1.47
2023-01-04T11:58:16.557Z,1.00
2023-01-04T12:01:05.315Z,1.10
2023-01-04T12:03:55.420Z,1.80
2023-01-04T12:06:49.345Z,1.30
2023-01-04T12:09:38.101Z,1.20
2023-01-04T12:12:30.831Z,1.30
2023-01-04T12:15:27.572Z,0.93
2023-01-04T12:18:20.218Z,1.00
2023-01-04T12:21:17.721Z,1.10
2023-01-04T12:24:07.837Z,1.00
2023-01-04T12:26:57.076Z,1.00
2023-01-04T12:30:00.399Z,1.20
2023-01-04T12:32:49.045Z,0.83
2023-01-04T12:36:04.977Z,0.73
2023-01-04T12:39:06.123Z,0.93
2023-01-04T12:42:27.112Z,1.10
2023-01-04T12:45:18.045Z,1.00
2023-01-04T12:48:53.632Z,0.87
2023-01-04T12:51:51.896Z,0.83
2023-01-04T12:54:54.504Z,1.00
2023-01-04T12:57:43.292Z,0.90
2023-01-04T13:01:05.537Z,1.00
2023-01-04T13:04:04.606Z,1.10
2023-01-04T13:06:54.011Z,0.90
2023-01-04T13:09:50.832Z,0.80
2023-01-04T13:12:56.995Z,1.20
2023-01-04T13:15:55.199Z,0.93
2023-01-04T13:18:47.404Z,1.00
2023-01-04T13:21:41.626Z,0.90
2023-01-04T13:24:32.469Z,0.90
2023-01-04T13:27:23.300Z,0.93
2023-01-04T13:30:32.302Z,0.90
2023-01-04T13:33:27.816Z,0.97
2023-01-04T13:36:17.282Z,1.00
2023-01-04T13:39:08.786Z,0.70
2023-01-04T13:41:58.829Z,1.00
2023-01-04T13:45:20.927Z,0.80
2023-01-04T13:48:15.066Z,1.00
2023-01-04T13:51:05.330Z,1.07
2023-01-04T13:53:55.326Z,1.00
2023-01-04T13:56:46.103Z,0.97
2023-01-04T13:59:38.220Z,1.03
2023-01-04T14:02:27.207Z,1.10
2023-01-04T14:05:19.723Z,0.80
2023-01-04T14:08:12.299Z,0.90
2023-01-04T14:11:01.205Z,0.93
2023-01-04T14:13:49.839Z,0.80
2023-01-04T14:16:38.548Z,1.17
2023-01-04T14:19:45.835Z,1.10
2023-01-04T14:22:43.950Z,0.80
2023-01-04T14:25:45.115Z,1.13
2023-01-04T14:28:46.876Z,1.30
2023-01-04T14:31:38.937Z,1.00
2023-01-04T14:34:28.307Z,1.00
2023-01-04T14:37:17.055Z,1.17
2023-01-04T14:40:16.738Z,0.80
2023-01-04T14:43:34.101Z,1.03
2023-01-04T14:46:23.936Z,1.00
2023-01-04T14:49:12.562Z,0.90
2023-01-04T14:52:02.472Z,0.87
2023-01-04T14:54:51.610Z,0.80
2023-01-04T14:57:43.381Z,0.90
2023-01-04T15:00:31.897Z,1.03
2023-01-04T15:03:20.796Z,0.90
2023-01-04T15:06:09.788Z,0.97
2023-01-04T15:08:58.535Z,0.90
2023-01-04T15:11:47.067Z,0.80
2023-01-04T15:14:38.541Z,0.90
2023-01-04T15:17:27.027Z,0.87
2023-01-04T15:20:15.803Z,1.00
2023-01-04T15:23:04.455Z,0.90
2023-01-04T15:25:53.211Z,1.10
2023-01-04T15:28:41.751Z,0.90
2023-01-04T15:31:38.967Z,1.00
2023-01-04T15:34:28.157Z,0.90
2023-01-04T15:37:23.443Z,1.17
2023-01-04T15:40:13.788Z,0.90
2023-01-04T15:43:02.874Z,0.90
2023-01-04T15:45:51.377Z,1.00
2023-01-04T15:48:50.154Z,0.90
2023-01-04T15:51:38.843Z,1.07
2023-01-04T15:54:27.932Z,1.00
2023-01-04T15:57:16.562Z,0.90
2023-01-04T16:00:05.617Z,1.10
2023-01-04T16:03:00.692Z,0.83
2023-01-04T16:05:50.869Z,1.07
2023-01-04T16:08:39.675Z,0.90
2023-01-04T16:11:28.356Z,1.10
2023-01-04T16:14:16.887Z,0.87
2023-01-04T16:17:05.748Z,0.93
2023-01-04T16:19:54.487Z,1.23
2023-01-04T16:22:44.522Z,0.90
2023-01-04T16:25:33.261Z,0.90
2023-01-04T16:28:21.809Z,0.77
2023-01-04T16:31:11.207Z,1.00
2023-01-04T16:34:00.051Z,0.90
2023-01-04T16:36:50.204Z,0.97
2023-01-04T16:42:51.282Z,0.90
2023-01-04T16:45:40.902Z,1.10
2023-01-04T16:48:29.432Z,1.00
2023-01-04T16:51:18.493Z,0.93
2023-01-04T16:54:09.819Z,1.10
2023-01-04T16:56:59.709Z,0.70
2023-01-04T16:59:48.760Z,0.90
2023-01-04T17:02:37.371Z,0.90
2023-01-04T17:05:26.070Z,1.10
2023-01-04T17:08:14.567Z,0.93
2023-01-04T17:11:50.957Z,0.97
2023-01-04T17:14:18.130Z,1.00
2023-01-04T17:17:06.679Z,0.90
2023-01-04T17:19:55.491Z,0.80
2023-01-04T17:22:44.140Z,1.10
2023-01-04T17:25:32.759Z,0.90
2023-01-04T17:28:25.143Z,1.00
2023-01-04T17:31:20.527Z,1.07
2023-01-04T17:34:11.917Z,0.93
2023-01-04T17:37:02.400Z,0.97
2023-01-04T17:39:51.094Z,1.10
2023-01-04T17:42:41.153Z,0.80
2023-01-04T17:45:30.332Z,0.80
2023-01-04T17:48:20.350Z,1.17
2023-01-04T17:51:11.084Z,0.80
2023-01-04T17:54:01.802Z,1.00
2023-01-04T17:56:50.340Z,0.70
2023-01-04T17:59:38.852Z,0.80
2023-01-04T18:02:30.502Z,0.93
2023-01-04T18:05:20.538Z,0.83
2023-01-04T18:08:09.053Z,0.87
2023-01-04T18:11:07.188Z,0.73
2023-01-04T18:13:56.481Z,0.90
2023-01-04T18:16:57.737Z,0.97
2023-01-04T18:19:46.899Z,0.90
2023-01-04T18:22:36.900Z,0.90
2023-01-04T18:25:25.840Z,0.93
2023-01-04T18:28:14.406Z,0.90
2023-01-04T18:31:15.022Z,1.37
2023-01-04T18:34:04.103Z,1.10
2023-01-04T18:36:52.821Z,0.90
2023-01-04T18:39:42.877Z,0.87
2023-01-04T18:42:32.356Z,1.00
2023-01-04T18:45:21.353Z,0.90
2023-01-04T18:48:09.889Z,1.10
2023-01-04T18:51:03.655Z,1.03
2023-01-04T18:53:52.334Z,1.27
2023-01-04T18:56:42.360Z,1.10
2023-01-04T18:59:31.319Z,0.90
2023-01-04T19:02:21.723Z,1.00
2023-01-04T19:05:11.600Z,1.30
2023-01-04T19:08:00.257Z,0.90
2023-01-04T19:10:48.924Z,0.90
2023-01-04T19:13:39.307Z,1.20
2023-01-04T19:16:29.692Z,1.30
2023-01-04T19:19:18.506Z,1.07
2023-01-04T19:22:08.196Z,1.40
2023-01-04T19:24:56.770Z,1.03
2023-01-04T19:27:45.375Z,1.00
2023-01-04T19:30:39.168Z,1.00
2023-01-04T19:33:27.692Z,0.80
2023-01-04T19:36:18.497Z,1.10
2023-01-04T19:39:09.266Z,1.10
2023-01-04T19:41:58.041Z,1.40
2023-01-04T19:44:46.587Z,1.13
2023-01-04T19:47:36.645Z,1.23
2023-01-04T19:50:25.409Z,1.10
2023-01-04T19:53:14.417Z,1.10
2023-01-04T19:56:03.181Z,1.10
2023-01-04T19:58:52.006Z,1.00
2023-01-04T20:01:40.864Z,1.13
2023-01-04T20:04:31.671Z,1.07
2023-01-04T20:07:20.450Z,0.80
2023-01-04T20:10:14.161Z,1.00
2023-01-04T20:13:03.348Z,0.83
2023-01-04T20:15:53.035Z,1.10
2023-01-04T20:18:41.788Z,1.00
2023-01-04T20:21:31.777Z,0.77
2023-01-04T20:24:20.426Z,1.00
2023-01-04T20:27:09.017Z,1.07
2023-01-04T20:29:58.145Z,1.00
2023-01-04T20:32:46.630Z,0.90
2023-01-04T20:35:39.009Z,0.80
2023-01-04T20:38:28.932Z,1.00
2023-01-04T20:41:20.050Z,0.80
2023-01-04T20:44:07.658Z,1.10
2023-01-04T20:46:56.503Z,0.80
2023-01-04T20:49:45.120Z,1.10
2023-01-04T20:52:33.780Z,0.83
2023-01-04T20:55:23.737Z,0.80
2023-01-04T20:58:14.602Z,1.00
2023-01-04T21:01:05.287Z,0.93
2023-01-04T21:03:54.187Z,1.00
2023-01-04T21:06:42.835Z,0.90
2023-01-04T21:09:31.421Z,0.90
2023-01-04T21:12:21.348Z,0.80
2023-01-04T21:15:11.019Z,1.10
2023-01-04T21:17:59.616Z,1.00
2023-01-04T21:20:48.371Z,0.90
2023-01-04T21:23:38.203Z,0.90
2023-01-04T21:26:26.853Z,0.80
2023-01-04T21:29:16.809Z,0.77
2023-01-04T21:32:05.833Z,0.73
2023-01-04T21:34:54.467Z,0.70
2023-01-04T21:37:42.922Z,0.80
2023-01-04T21:40:31.730Z,1.00
2023-01-04T21:43:20.223Z,0.67
2023-01-04T21:46:12.087Z,0.80
2023-01-04T21:49:02.209Z,0.70
2023-01-04T21:51:50.946Z,0.70
2023-01-04T21:54:39.972Z,0.80
2023-01-04T21:57:28.724Z,0.60
2023-01-04T22:00:17.805Z,0.80
2023-01-04T22:03:08.683Z,0.70
2023-01-04T22:06:03.184Z,0.63
2023-01-04T22:08:52.745Z,0.80
2023-01-04T22:11:43.268Z,0.80
2023-01-04T22:14:32.081Z,0.90
2023-01-04T22:17:20.574Z,0.60
2023-01-04T22:20:11.900Z,0.60
2023-01-04T22:23:00.954Z,0.90
2023-01-04T22:25:50.117Z,0.90
2023-01-04T22:28:39.717Z,0.73
2023-01-04T22:31:28.728Z,0.90
2023-01-04T22:34:18.817Z,0.70
2023-01-04T22:37:08.653Z,0.70
2023-01-04T22:39:57.161Z,0.60
2023-01-04T22:42:45.681Z,0.80
2023-01-04T22:45:34.274Z,0.80
2023-01-04T22:48:22.908Z,0.80
2023-01-04T22:51:13.294Z,0.80
2023-01-04T22:54:05.486Z,0.70
2023-01-04T22:56:54.062Z,0.70
2023-01-04T22:59:42.607Z,0.80
2023-01-04T23:02:31.096Z,0.60
2023-01-04T23:05:19.823Z,0.60
2023-01-04T23:08:08.525Z,0.50
2023-01-04T23:10:58.485Z,0.60
2023-01-04T23:13:47.398Z,0.70
2023-01-04T23:16:36.510Z,0.60
2023-01-04T23:19:25.169Z,0.50
2023-01-04T23:22:13.835Z,0.60
2023-01-04T23:25:02.353Z,0.50
2023-01-04T23:27:52.259Z,0.50
2023-01-04T23:30:41.155Z,0.60
2023-01-04T23:33:35.511Z,0.63
2023-01-04T23:36:27.956Z,0.70
2023-01-04T23:39:17.362Z,0.50
2023-01-04T23:42:05.957Z,0.53
2023-01-04T23:44:56.087Z,0.60
2023-01-04T23:47:44.654Z,0.50
2023-01-04T23:50:33.247Z,0.43
2023-01-04T23:53:21.817Z,0.50
2023-01-04T23:56:15.987Z,0.60
2023-01-04T23:59:04.613Z,0.50
